createdAt,value
2018-06-13T00:01:45.771Z,14.20
2018-06-13T00:04:13.922Z,14.20
2018-06-13T00:06:42.113Z,14.20
2018-06-13T00:09:10.281Z,14.30
2018-06-13T00:11:38.445Z,14.40
2018-06-13T00:14:06.641Z,14.40
2018-06-13T00:19:02.733Z,14.60
2018-06-13T00:21:30.897Z,14.50
2018-06-13T00:23:59.073Z,14.40
2018-06-13T00:26:27.259Z,14.30
2018-06-13T00:28:55.453Z,14.30
2018-06-13T00:31:23.645Z,14.20
2018-06-13T00:33:51.816Z,14.10
2018-06-13T00:36:20.002Z,14.10
2018-06-13T00:38:48.186Z,14.00
2018-06-13T00:43:44.275Z,14.00
2018-06-13T00:46:12.445Z,14.10
2018-06-13T00:48:40.609Z,14.00
2018-06-13T00:51:08.769Z,13.90
2018-06-13T00:53:36.926Z,13.80
2018-06-13T00:56:16.321Z,13.80
2018-06-13T00:58:44.514Z,13.80
2018-06-13T01:01:12.691Z,13.90
2018-06-13T01:03:40.849Z,13.80
2018-06-13T01:06:09.019Z,13.90
2018-06-13T01:08:37.214Z,13.80
2018-06-13T01:11:05.371Z,13.70
2018-06-13T01:13:33.599Z,13.70
2018-06-13T01:16:01.770Z,13.70
2018-06-13T01:18:29.955Z,13.70
2018-06-13T01:20:58.143Z,13.80
2018-06-13T01:23:26.353Z,13.80
2018-06-13T01:25:54.526Z,13.60
2018-06-13T01:28:22.711Z,13.70
2018-06-13T01:30:50.893Z,13.70
2018-06-13T01:33:19.070Z,13.60
2018-06-13T01:35:47.247Z,13.50
2018-06-13T01:40:43.394Z,13.40
2018-06-13T01:45:39.654Z,13.50
2018-06-13T01:48:07.959Z,13.40
2018-06-13T01:50:36.260Z,13.40
2018-06-13T01:53:04.546Z,13.40
2018-06-13T01:55:32.929Z,13.30
2018-06-13T01:58:01.226Z,13.30
2018-06-13T02:02:57.579Z,13.50
2018-06-13T02:10:21.911Z,13.80
2018-06-13T02:12:50.190Z,13.70
2018-06-13T02:15:18.443Z,13.60
2018-06-13T02:17:46.657Z,13.60
2018-06-13T02:20:14.929Z,13.70
2018-06-13T02:22:43.154Z,13.90
2018-06-13T02:25:11.362Z,13.60
2018-06-13T02:27:39.537Z,13.70
2018-06-13T02:30:07.705Z,13.70
2018-06-13T02:32:35.898Z,13.70
2018-06-13T02:35:04.077Z,13.80
2018-06-13T02:37:32.233Z,13.50
2018-06-13T02:40:00.419Z,13.50
2018-06-13T02:42:28.581Z,13.30
2018-06-13T02:44:56.755Z,13.20
2018-06-13T02:47:24.925Z,13.20
2018-06-13T02:49:53.099Z,13.20
2018-06-13T02:54:49.195Z,13.00
2018-06-13T02:57:17.356Z,13.00
2018-06-13T02:59:45.526Z,13.00
2018-06-13T03:02:13.679Z,13.10
2018-06-13T03:04:41.898Z,13.20
2018-06-13T03:07:10.154Z,13.10
2018-06-13T03:09:38.448Z,13.10
2018-06-13T03:12:06.713Z,13.00
2018-06-13T03:14:35.050Z,13.10
2018-06-13T03:17:03.283Z,13.10
2018-06-13T03:19:31.535Z,13.10
2018-06-13T03:21:59.806Z,13.00
2018-06-13T03:24:28.069Z,13.00
2018-06-13T03:26:56.271Z,13.00
2018-06-13T03:29:24.497Z,12.90
2018-06-13T03:31:52.722Z,12.90
2018-06-13T03:34:21.060Z,12.80
2018-06-13T03:36:49.338Z,12.90
2018-06-13T03:39:17.572Z,12.80
2018-06-13T03:41:45.826Z,12.80
2018-06-13T03:44:14.063Z,12.80
2018-06-13T03:46:42.382Z,12.80
2018-06-13T03:49:10.608Z,12.70
2018-06-13T03:51:38.929Z,12.70
2018-06-13T03:54:07.212Z,12.70
2018-06-13T03:56:35.381Z,12.90
2018-06-13T03:59:03.537Z,12.70
2018-06-13T04:01:31.705Z,12.70
2018-06-13T04:03:59.868Z,12.90
2018-06-13T04:06:28.067Z,12.90
2018-06-13T04:08:56.250Z,12.70
2018-06-13T04:11:24.421Z,12.70
2018-06-13T04:13:52.598Z,12.90
2018-06-13T04:16:20.762Z,12.80
2018-06-13T04:18:48.917Z,12.80
2018-06-13T04:21:17.075Z,12.70
2018-06-13T04:23:45.246Z,12.80
2018-06-13T04:28:42.189Z,12.80
2018-06-13T04:31:10.362Z,12.90
2018-06-13T04:33:38.542Z,12.90
2018-06-13T04:36:06.802Z,13.10
2018-06-13T04:38:34.985Z,13.00
2018-06-13T04:41:03.186Z,13.00
2018-06-13T04:43:31.382Z,13.30
2018-06-13T04:45:59.624Z,13.10
2018-06-13T04:50:55.721Z,13.00
2018-06-13T04:53:23.877Z,13.50
2018-06-13T04:55:52.046Z,13.30
2018-06-13T04:58:20.286Z,13.30
2018-06-13T05:00:48.410Z,13.30
2018-06-13T05:03:16.559Z,13.20
2018-06-13T05:05:44.749Z,13.40
2018-06-13T05:08:12.918Z,13.70
2018-06-13T05:10:41.094Z,13.80
2018-06-13T05:13:09.284Z,13.90
2018-06-13T05:15:37.458Z,13.90
2018-06-13T05:18:05.633Z,14.00
2018-06-13T05:20:33.769Z,13.80
2018-06-13T05:23:01.931Z,13.80
2018-06-13T05:27:58.014Z,13.80
2018-06-13T05:30:26.169Z,13.70
2018-06-13T05:32:54.414Z,13.60
2018-06-13T05:37:50.561Z,13.70
2018-06-13T05:40:18.742Z,14.00
2018-06-13T05:45:14.833Z,13.70
2018-06-13T05:47:43.022Z,13.80
2018-06-13T05:50:11.167Z,13.90
2018-06-13T05:52:39.354Z,14.00
2018-06-13T05:55:07.514Z,13.70
2018-06-13T05:57:35.697Z,14.10
2018-06-13T06:00:03.922Z,14.30
2018-06-13T06:02:32.104Z,14.40
2018-06-13T06:05:00.261Z,14.10
2018-06-13T06:07:28.463Z,14.40
2018-06-13T06:09:56.646Z,14.40
2018-06-13T06:12:24.806Z,14.20
2018-06-13T06:14:52.974Z,14.30
2018-06-13T06:17:21.149Z,14.00
2018-06-13T06:22:17.287Z,14.30
2018-06-13T06:24:45.465Z,14.10
2018-06-13T06:29:41.561Z,14.40
2018-06-13T06:32:09.734Z,14.20
2018-06-13T06:34:37.922Z,14.40
2018-06-13T06:37:06.114Z,14.40
2018-06-13T06:39:34.305Z,14.40
2018-06-13T06:42:02.508Z,14.90
2018-06-13T06:44:30.654Z,14.70
2018-06-13T06:49:26.753Z,14.90
2018-06-13T06:51:54.949Z,14.50
2018-06-13T06:54:23.140Z,14.50
2018-06-13T06:56:51.313Z,14.70
2018-06-13T07:01:47.385Z,15.30
2018-06-13T07:04:15.545Z,15.50
2018-06-13T07:06:43.694Z,15.60
2018-06-13T07:11:39.784Z,17.20
2018-06-13T07:14:07.925Z,17.00
2018-06-13T07:16:36.093Z,16.80
2018-06-13T07:19:04.374Z,16.40
2018-06-13T07:21:32.461Z,16.50
2018-06-13T07:24:00.630Z,16.00
2018-06-13T07:26:28.761Z,16.30
2018-06-13T07:28:56.943Z,16.20
2018-06-13T07:31:25.090Z,15.90
2018-06-13T07:33:53.305Z,15.50
2018-06-13T07:36:21.473Z,16.00
2018-06-13T07:38:49.659Z,16.30
2018-06-13T07:41:17.864Z,16.40
2018-06-13T07:43:46.115Z,16.80
2018-06-13T07:46:14.281Z,17.20
2018-06-13T07:51:10.407Z,17.40
2018-06-13T07:53:38.609Z,17.30
2018-06-13T07:56:06.790Z,17.30
2018-06-13T07:58:34.966Z,18.20
2018-06-13T08:01:03.126Z,18.70
2018-06-13T08:03:31.314Z,19.10
2018-06-13T08:05:59.458Z,19.60
2018-06-13T08:08:27.693Z,19.50
2018-06-13T08:10:55.784Z,18.80
2018-06-13T08:13:23.970Z,19.40
2018-06-13T08:15:52.117Z,19.20
2018-06-13T08:18:20.317Z,17.50
2018-06-13T08:20:48.493Z,17.60
2018-06-13T08:23:16.653Z,19.00
2018-06-13T08:25:44.866Z,19.60
2018-06-13T08:28:13.049Z,18.80
2018-06-13T08:30:41.218Z,19.40
2018-06-13T08:35:37.356Z,19.10
2018-06-13T08:38:05.646Z,18.70
2018-06-13T08:40:33.802Z,17.90
2018-06-13T08:43:02.007Z,17.20
2018-06-13T08:45:30.179Z,17.40
2018-06-13T08:47:58.334Z,17.00
2018-06-13T08:50:26.517Z,17.30
2018-06-13T08:52:54.680Z,17.60
2018-06-13T08:55:22.879Z,17.50
2018-06-13T09:00:18.986Z,16.90
2018-06-13T09:05:15.070Z,16.40
2018-06-13T09:07:43.221Z,16.10
2018-06-13T09:10:11.434Z,15.50
2018-06-13T09:12:39.629Z,15.50
2018-06-13T09:15:07.809Z,15.30
2018-06-13T09:17:35.997Z,14.90
2018-06-13T09:20:04.182Z,15.00
2018-06-13T09:22:32.419Z,14.80
2018-06-13T09:25:00.541Z,14.80
2018-06-13T09:27:28.713Z,14.80
2018-06-13T09:32:24.815Z,14.80
2018-06-13T09:34:53.098Z,14.60
2018-06-13T09:37:21.338Z,14.70
2018-06-13T09:39:50.610Z,14.60
2018-06-13T09:42:18.840Z,14.60
2018-06-13T09:44:47.080Z,15.00
2018-06-13T09:47:23.387Z,15.10
2018-06-13T09:49:43.470Z,15.00
2018-06-13T09:52:11.783Z,15.40
2018-06-13T09:57:07.886Z,15.40
2018-06-13T09:59:40.326Z,15.30
2018-06-13T10:02:14.156Z,15.50
2018-06-13T10:04:42.383Z,15.80
2018-06-13T10:07:10.735Z,15.90
2018-06-13T10:09:38.925Z,16.00
2018-06-13T10:14:35.040Z,15.70
2018-06-13T10:17:03.254Z,15.70
2018-06-13T10:26:55.427Z,15.60
2018-06-13T10:29:23.685Z,15.90
2018-06-13T10:31:51.880Z,16.30
2018-06-13T10:36:48.001Z,16.20
2018-06-13T10:39:16.223Z,16.30
2018-06-13T10:41:44.434Z,16.20
2018-06-13T10:44:12.637Z,16.60
2018-06-13T10:46:40.815Z,17.00
2018-06-13T10:51:36.930Z,16.80
2018-06-13T10:54:05.130Z,16.10
2018-06-13T10:59:01.280Z,15.30
2018-06-13T11:06:25.350Z,14.70
2018-06-13T11:08:53.539Z,14.70
2018-06-13T11:11:21.710Z,14.80
2018-06-13T11:13:49.898Z,14.90
2018-06-13T11:16:18.103Z,15.00
2018-06-13T11:18:46.294Z,14.90
2018-06-13T11:21:15.475Z,15.00
2018-06-13T11:23:43.696Z,15.00
2018-06-13T11:26:11.910Z,14.90
2018-06-13T11:28:40.103Z,15.00
2018-06-13T11:31:08.295Z,15.20
2018-06-13T11:33:36.497Z,15.30
2018-06-13T11:36:04.729Z,15.30
2018-06-13T11:38:32.943Z,15.00
2018-06-13T11:41:01.169Z,15.00
2018-06-13T11:43:29.324Z,14.90
2018-06-13T11:45:57.525Z,15.00
2018-06-13T11:48:25.741Z,15.00
2018-06-13T11:50:53.946Z,15.00
2018-06-13T11:53:22.144Z,15.20
2018-06-13T11:55:50.314Z,15.20
2018-06-13T12:03:14.385Z,15.60
2018-06-13T12:05:42.585Z,15.70
2018-06-13T12:08:10.782Z,16.50
2018-06-13T12:10:38.996Z,16.50
2018-06-13T12:13:07.202Z,16.50
2018-06-13T12:15:35.550Z,16.60
2018-06-13T12:18:03.745Z,16.30
2018-06-13T12:20:31.930Z,16.20
2018-06-13T12:23:00.117Z,16.30
2018-06-13T12:25:28.358Z,16.10
2018-06-13T12:27:56.554Z,16.50
2018-06-13T12:30:24.741Z,16.90
2018-06-13T12:37:48.910Z,16.60
2018-06-13T12:40:17.171Z,16.90
2018-06-13T12:42:45.314Z,16.90
2018-06-13T12:45:13.591Z,17.30
2018-06-13T12:47:41.845Z,17.50
2018-06-13T12:50:10.144Z,17.60
2018-06-13T12:52:38.383Z,17.10
2018-06-13T12:55:06.647Z,17.60
2018-06-13T12:57:34.866Z,17.10
2018-06-13T13:00:03.137Z,17.10
2018-06-13T13:02:31.505Z,17.00
2018-06-13T13:04:59.800Z,16.70
2018-06-13T13:07:28.140Z,16.50
2018-06-13T13:09:56.474Z,16.50
2018-06-13T13:12:24.780Z,16.60
2018-06-13T13:14:53.044Z,16.70
2018-06-13T13:17:21.293Z,16.80
2018-06-13T13:19:49.553Z,17.00
2018-06-13T13:22:17.833Z,16.70
2018-06-13T13:24:46.089Z,16.50
2018-06-13T13:27:14.492Z,16.90
2018-06-13T13:29:42.763Z,16.90
2018-06-13T13:32:10.915Z,17.00
2018-06-13T13:34:39.159Z,16.40
2018-06-13T13:37:07.361Z,16.10
2018-06-13T13:39:35.576Z,15.90
2018-06-13T13:42:03.806Z,15.90
2018-06-13T13:44:32.062Z,16.00
2018-06-13T13:47:00.265Z,16.50
2018-06-13T13:49:28.512Z,16.70
2018-06-13T13:51:56.703Z,16.80
2018-06-13T13:54:24.890Z,16.90
2018-06-13T13:56:53.085Z,16.80
2018-06-13T14:01:49.222Z,17.40
2018-06-13T14:04:18.170Z,17.70
2018-06-13T14:06:46.350Z,17.70
2018-06-13T14:09:14.546Z,17.00
2018-06-13T14:11:42.808Z,16.40
2018-06-13T14:14:11.068Z,16.20
2018-06-13T14:16:39.342Z,16.10
2018-06-13T14:19:07.614Z,16.30
2018-06-13T14:21:35.818Z,16.00
2018-06-13T14:24:04.030Z,16.00
2018-06-13T14:36:24.174Z,15.40
2018-06-13T14:43:48.388Z,15.60
2018-06-13T14:46:16.713Z,15.70
2018-06-13T14:48:44.928Z,15.60
2018-06-13T14:51:13.266Z,15.40
2018-06-13T14:53:41.440Z,15.40
2018-06-13T14:56:15.016Z,15.60
2018-06-13T14:58:43.247Z,15.80
2018-06-13T15:01:11.491Z,15.90
2018-06-13T15:03:40.736Z,16.10
2018-06-13T15:06:09.013Z,16.00
2018-06-13T15:08:37.266Z,16.10
2018-06-13T15:11:05.881Z,16.00
2018-06-13T15:16:02.229Z,16.50
2018-06-13T15:18:30.502Z,16.50
2018-06-13T15:25:54.842Z,16.30
2018-06-13T15:30:51.032Z,16.30
2018-06-13T15:33:19.229Z,16.30
2018-06-13T15:35:47.518Z,16.00
2018-06-13T15:38:15.751Z,16.30
2018-06-13T15:40:44.015Z,15.80
2018-06-13T15:43:12.316Z,15.70
2018-06-13T15:45:40.630Z,15.70
2018-06-13T15:50:36.923Z,15.90
2018-06-13T15:53:05.255Z,15.90
2018-06-13T15:58:01.499Z,15.80
2018-06-13T16:05:25.762Z,15.60
2018-06-13T16:07:54.034Z,15.70
2018-06-13T16:10:22.322Z,15.80
2018-06-13T16:12:50.555Z,16.00
2018-06-13T16:15:18.920Z,16.10
2018-06-13T16:17:47.232Z,16.10
2018-06-13T16:20:15.483Z,15.90
2018-06-13T16:22:43.774Z,15.90
2018-06-13T16:25:12.094Z,16.00
2018-06-13T16:27:40.454Z,15.90
2018-06-13T16:30:08.824Z,15.80
2018-06-13T16:32:37.124Z,15.60
2018-06-13T16:35:05.377Z,15.60
2018-06-13T16:37:33.752Z,15.70
2018-06-13T16:40:02.026Z,15.60
2018-06-13T16:42:30.247Z,15.60
2018-06-13T16:44:58.527Z,15.60
2018-06-13T16:47:26.820Z,15.80
2018-06-13T16:53:32.039Z,15.70
2018-06-13T16:56:00.289Z,15.80
2018-06-13T16:58:28.486Z,15.50
2018-06-13T17:00:56.682Z,15.50
2018-06-13T17:03:24.915Z,15.50
2018-06-13T17:05:53.101Z,15.50
2018-06-13T17:08:21.282Z,15.50
2018-06-13T17:10:49.473Z,15.50
2018-06-13T17:13:17.710Z,15.60
2018-06-13T17:15:45.901Z,15.50
2018-06-13T17:18:14.086Z,15.50
2018-06-13T17:20:42.390Z,15.50
2018-06-13T17:23:10.635Z,15.40
2018-06-13T17:25:38.806Z,15.60
2018-06-13T17:28:06.985Z,15.40
2018-06-13T17:30:35.180Z,15.30
2018-06-13T17:33:03.422Z,15.60
2018-06-13T17:35:31.655Z,15.80
2018-06-13T17:37:59.850Z,15.50
2018-06-13T17:40:28.020Z,15.40
2018-06-13T17:45:24.546Z,15.10
2018-06-13T17:47:52.770Z,15.10
2018-06-13T17:50:20.952Z,15.20
2018-06-13T17:52:49.162Z,15.00
2018-06-13T17:55:17.397Z,15.10
2018-06-13T17:57:45.945Z,15.10
2018-06-13T18:02:42.030Z,15.20
2018-06-13T18:05:10.218Z,15.00
2018-06-13T18:07:38.497Z,15.10
2018-06-13T18:10:06.729Z,15.10
2018-06-13T18:12:34.906Z,15.00
2018-06-13T18:15:03.103Z,14.90
2018-06-13T18:17:31.405Z,15.10
2018-06-13T18:19:59.665Z,15.10
2018-06-13T18:22:27.834Z,15.20
2018-06-13T18:24:56.142Z,15.20
2018-06-13T18:27:24.413Z,15.00
2018-06-13T18:29:52.535Z,14.90
2018-06-13T18:32:20.742Z,14.90
2018-06-13T18:34:48.925Z,14.70
2018-06-13T18:37:17.180Z,14.90
2018-06-13T18:39:45.451Z,14.90
2018-06-13T18:42:13.606Z,14.90
2018-06-13T18:44:42.146Z,14.80
2018-06-13T18:47:10.333Z,14.80
2018-06-13T18:49:38.571Z,14.90
2018-06-13T18:52:06.810Z,14.60
2018-06-13T18:54:35.002Z,14.50
2018-06-13T18:57:03.200Z,14.50
2018-06-13T18:59:31.370Z,14.70
2018-06-13T19:01:59.550Z,14.60
2018-06-13T19:04:27.883Z,14.50
2018-06-13T19:06:56.065Z,14.40
2018-06-13T19:09:24.264Z,14.30
2018-06-13T19:11:52.437Z,14.50
2018-06-13T19:14:20.622Z,14.50
2018-06-13T19:16:48.798Z,14.40
2018-06-13T19:19:17.079Z,14.60
2018-06-13T19:21:45.278Z,14.60
2018-06-13T19:24:13.502Z,14.70
2018-06-13T19:26:41.679Z,14.60
2018-06-13T19:29:09.850Z,14.50
2018-06-13T19:31:38.029Z,14.50
2018-06-13T19:34:06.202Z,14.40
2018-06-13T19:36:34.407Z,14.30
2018-06-13T19:39:02.670Z,14.40
2018-06-13T19:41:30.878Z,14.40
2018-06-13T19:43:59.098Z,14.40
2018-06-13T19:46:27.275Z,14.50
2018-06-13T19:48:55.854Z,14.70
2018-06-13T19:51:24.078Z,14.50
2018-06-13T19:53:57.717Z,14.40
2018-06-13T19:56:31.342Z,14.40
2018-06-13T19:58:59.627Z,14.30
2018-06-13T20:01:27.829Z,14.10
2018-06-13T20:04:01.262Z,14.10
2018-06-13T20:06:29.418Z,14.00
2018-06-13T20:08:57.642Z,14.00
2018-06-13T20:11:25.843Z,14.10
2018-06-13T20:13:59.382Z,14.10
2018-06-13T20:19:12.259Z,14.00
2018-06-13T20:21:40.461Z,14.30
2018-06-13T20:24:08.670Z,14.50
2018-06-13T20:29:15.454Z,14.40
2018-06-13T20:31:45.604Z,14.30
2018-06-13T20:34:13.836Z,14.30
2018-06-13T20:36:42.133Z,14.30
2018-06-13T20:41:39.949Z,14.60
2018-06-13T20:44:08.522Z,14.60
2018-06-13T20:46:36.902Z,14.30
2018-06-13T20:49:05.339Z,14.20
2018-06-13T20:51:33.550Z,14.20
2018-06-13T20:54:01.789Z,14.20
2018-06-13T20:56:30.306Z,14.00
2018-06-13T20:58:58.462Z,13.90
2018-06-13T21:03:54.763Z,14.30
2018-06-13T21:06:22.941Z,14.20
2018-06-13T21:08:51.104Z,14.30
2018-06-13T21:11:19.282Z,14.70
2018-06-13T21:13:47.451Z,14.90
2018-06-13T21:16:16.190Z,15.00
2018-06-13T21:21:12.336Z,14.90
2018-06-13T21:26:08.481Z,15.40
2018-06-13T21:31:04.648Z,14.70
2018-06-13T21:33:32.877Z,14.20
2018-06-13T21:36:01.052Z,13.90
2018-06-13T21:38:29.297Z,13.80
2018-06-13T21:40:57.504Z,13.70
2018-06-13T21:43:25.710Z,14.00
2018-06-13T21:45:53.902Z,14.50
2018-06-13T21:48:22.074Z,15.00
2018-06-13T21:50:50.265Z,15.00
2018-06-13T21:53:18.414Z,14.90
2018-06-13T21:55:46.595Z,15.10
2018-06-13T21:58:14.781Z,15.30
2018-06-13T22:00:42.953Z,15.20
2018-06-13T22:03:11.114Z,15.00
2018-06-13T22:05:39.272Z,14.90
2018-06-13T22:08:07.487Z,15.00
2018-06-13T22:10:35.661Z,15.10
2018-06-13T22:13:03.826Z,15.00
2018-06-13T22:15:32.014Z,14.90
2018-06-13T22:18:00.193Z,14.90
2018-06-13T22:20:28.471Z,14.80
2018-06-13T22:22:56.726Z,14.80
2018-06-13T22:25:24.909Z,14.60
2018-06-13T22:27:53.105Z,14.00
2018-06-13T22:30:21.304Z,13.80
2018-06-13T22:32:49.492Z,14.20
2018-06-13T22:37:45.586Z,14.50
2018-06-13T22:40:13.777Z,14.40
2018-06-13T22:42:41.976Z,14.50
2018-06-13T22:45:10.109Z,14.10
2018-06-13T22:47:38.294Z,14.10
2018-06-13T22:50:06.488Z,13.80
2018-06-13T22:52:34.684Z,13.70
2018-06-13T22:55:02.882Z,14.00
2018-06-13T22:57:31.062Z,14.20
2018-06-13T22:59:59.298Z,14.30
2018-06-13T23:02:27.472Z,14.50
2018-06-13T23:07:23.614Z,14.00
2018-06-13T23:12:19.762Z,14.30
2018-06-13T23:14:47.921Z,14.60
2018-06-13T23:17:16.106Z,14.80
2018-06-13T23:22:12.219Z,14.50
2018-06-13T23:24:40.394Z,14.20
2018-06-13T23:27:08.609Z,14.20
2018-06-13T23:29:36.789Z,14.20
2018-06-13T23:32:04.965Z,14.30
2018-06-13T23:34:33.165Z,14.40
2018-06-13T23:37:01.334Z,14.40
2018-06-13T23:39:29.506Z,14.40
2018-06-13T23:41:57.727Z,14.30
2018-06-13T23:44:25.914Z,14.30
2018-06-13T23:46:54.096Z,14.30
2018-06-13T23:49:22.272Z,14.30
2018-06-13T23:54:18.413Z,14.60
2018-06-13T23:59:14.557Z,14.50
